Airfield :
LOGIN :

Register | Disclaimer

   EN    FR    IT 

 










Legend :    VFR   Marginal VFR   IFR   Intensive IFR   Very Intensive IFR
Visi :
Ceiling :
>= 8 km
>= 3000ft
5 to 8 km
1000 to 3000 ft
1500m to 5 km
500 to 1000 ft
800 to 1500m
200 to 500 ft
< 800m
< 200 ft
Symbols :   Thunderstorms  Fog  Heavy snow  Heavy precipitations  Wind > 20 kt
SIGMETs :     Misc.  Thunderstorms  Icing  Turbulence  Mountain Waves  Volcanic Ashes







- Airport Elevation : 362 ft
- IATA code : WAW


EPWA - Warsaw Okecie

CURRENT METAR :
  • 211700Z 27004KT 210V300 CAVOK 26/15 Q1010 NOSIG

EXPIRED METARs :
  • 211630Z 28005KT 230V310 CAVOK 27/14 Q1010 NOSIG
  • 211600Z 29006KT CAVOK 27/14 Q1010 NOSIG
  • 211530Z 29006KT 260V340 CAVOK 27/15 Q1010 NOSIG
  • 211500Z 31007KT 260V350 CAVOK 26/14 Q1010 NOSIG
  • 211430Z 30005KT 260V020 CAVOK 27/14 Q1010 NOSIG

TAF TAF EPWA
Valid from the 21 at 15:00 until the 22 at 15:00 UTC


211430Z 2115/2215 VRB04KT CAVOK
No reported NOTAMs for that airfield.



MET'MAP, your aeronautical weather chart ! - Copyright ORBIFLY December 2007 - Disclaimer

ORBIFLY MET'MAP TEAM :

Programming & Development : Alexandra Zaïnal
Concept & Development : Baudouin d'Aumeries
Co-Development & Prog : Marc-Olivier Méhu
Technical & hardware support : Manuel Goepfert

Contact : metmap@orbifly.com




SOURCES & CREDITS :

   NOAA